LFBD/BOD METAR and TAF weather

Enter ICAO airport designator
Station Type Date Time Source
LFBD METAR 2020/07/15 07:30 UTC NOAA

LFBD 150730Z AUTO 32010KT 9999 SCT023 BKN031 BKN040 19/14 Q1019 NOSIG


Station Type Date Time Source
LFBD Decoded METAR 2020/07/15 07:30 UTC NOAA

Bordeaux / Merignac, France (LFBD) 44-50N 000-42W 61M
Jul 15, 2020 - 03:30 AM EDT / 2020.07.15 0730 UTC
Wind: from the NW (320 degrees) at 12 MPH (10 KT):0
Visibility: greater than 7 mile(s):0
Sky conditions: mostly cloudy
Temperature: 66 F (19 C)
Dew Point: 57 F (14 C)
Relative Humidity: 72%
Pressure (altimeter): 30.09 in. Hg (1019 hPa)
ob: LFBD 150730Z AUTO 32010KT 9999 SCT023 BKN031 BKN040 19/14 Q1019 NOSIG
cycle: 7

Station Type Date Time Source
LFBD TAF 2020/07/15 06:21 UTC NOAA

TAF TAF LFBD 150500Z 1506/1612 28010KT 9999 BKN030 TX23/1515Z TN15/1605Z
TEMPO 1512/1515 30015G25KT CAVOK
TEMPO 1523/1608 VRB02KT BKN015

Example: see airport list